WetterOnline ( http://www.wetteronline.de )

Wetter aktuell Euskirchen

Aktuelles Wetter: Roleber (162m)

6-stündlich | Neueste Meldungen
Ortszeit Temperatur Wetter
Fr, 19.10. 8:00 5.2° C Nebel
Fr, 19.10. 2:00 7.8° C Nebel
Do, 18.10. 20:00 13.1° C leicht bewölkt
Do, 18.10. 14:00 16.0° C bedeckt
Do, 18.10. 8:00 12.8° C bedeckt
Do, 18.10. 2:00 12.5° C wolkig
Mi, 17.10. 20:00 17.5° C wolkig
Mi, 17.10. 14:00 21.2° C wolkig
Ortszeit Temperatur Wetter
Fr, 19.10. 8:30 6.0° C Nebel
Fr, 19.10. 8:20 6.0° C Nebel
Fr, 19.10. 8:10 5.8° C Nebel
Fr, 19.10. 8:00 5.2° C Nebel
Fr, 19.10. 7:50 5.2° C Nebel
Fr, 19.10. 7:40 5.5° C Nebel
Fr, 19.10. 7:30 5.4° C Nebel
Fr, 19.10. 7:00 5.9° C Nebel
Fr, 19.10. 6:30 6.0° C fast wolkenlos
Fr, 19.10. 6:00 6.2° C wolkenlos
Fr, 19.10. 5:30 6.0° C wolkenlos
Ortszeit Relative Feuchte Sichtweite
Fr, 19.10. 8:00 99% 100 m
Fr, 19.10. 2:00 97% 100 m
Do, 18.10. 20:00 74% 25 km
Do, 18.10. 14:00 75% 6 km
Do, 18.10. 8:00 94% 1.3 km
Do, 18.10. 2:00 93% 2.1 km
Mi, 17.10. 20:00 65% 19 km
Mi, 17.10. 14:00 51% 35 km
Ortszeit Relative Feuchte Sichtweite
Fr, 19.10. 8:30 98% 0.4 km
Fr, 19.10. 8:20 98% -
Fr, 19.10. 8:10 99% -
Fr, 19.10. 8:00 99% 100 m
Fr, 19.10. 7:50 99% -
Fr, 19.10. 7:40 98% -
Fr, 19.10. 7:30 98% 0.2 km
Fr, 19.10. 7:00 99% 0.5 km
Fr, 19.10. 6:30 99% 1.6 km
Fr, 19.10. 6:00 99% 1.7 km
Fr, 19.10. 5:30 98% 1.6 km
Ortszeit Niederschlagsmenge Niederschlagsart
Fr, 19.10. 8:00 0.0 l/m2 in 12 Std. -
Fr, 19.10. 2:00 0.0 l/m2 in 6 Std. -
Do, 18.10. 20:00 0.0 l/m2 in 12 Std. -
Do, 18.10. 14:00 0.0 l/m2 in 6 Std. -
Do, 18.10. 8:00 0.0 l/m2 in 12 Std. -
Do, 18.10. 2:00 0.0 l/m2 in 6 Std. -
Mi, 17.10. 20:00 0.0 l/m2 in 12 Std. -
Mi, 17.10. 14:00 0.0 l/m2 in 6 Std. -
Ortszeit Niederschlagsmenge Niederschlagsart
Fr, 19.10. 8:30 0.0 l/m2 in 1 Std. -
Fr, 19.10. 8:20 keine Meldung -
Fr, 19.10. 8:10 keine Meldung -
Fr, 19.10. 8:00 0.0 l/m2 in 1 Std. -
Fr, 19.10. 7:50 keine Meldung -
Fr, 19.10. 7:40 keine Meldung -
Fr, 19.10. 7:30 0.0 l/m2 in 1 Std. -
Fr, 19.10. 7:00 0.0 l/m2 in 1 Std. -
Fr, 19.10. 6:30 0.0 l/m2 in 1 Std. -
Fr, 19.10. 6:00 0.0 l/m2 in 1 Std. -
Fr, 19.10. 5:30 0.0 l/m2 in 1 Std. -
Ortszeit Stärke Spitze Richtung
km/h Bft. km/h Grad Sektor
Fr, 19.10. 8:00 2 1 7 160° S
Fr, 19.10. 2:00 4 1 11 130° SO
Do, 18.10. 20:00 7 2 18 360° N
Do, 18.10. 14:00 9 2 19 340° N
Do, 18.10. 8:00 4 1 14 330° NW
Do, 18.10. 2:00 4 1 11 280° W
Mi, 17.10. 20:00 7 2 11 340° N
Mi, 17.10. 14:00 4 1 14 90° O
Ortszeit Stärke Spitze Richtung
km/h Bft. km/h Grad Sektor
Fr, 19.10. 8:30 2 1 4 210° SW
Fr, 19.10. 8:20 2 1 - 210° SW
Fr, 19.10. 8:10 4 1 - 220° SW
Fr, 19.10. 8:00 2 1 6 160° S
Fr, 19.10. 7:50 2 1 - 160° S
Fr, 19.10. 7:40 2 1 - 210° SW
Fr, 19.10. 7:30 4 1 4 220° SW
Fr, 19.10. 7:00 4 1 4 260° W
Fr, 19.10. 6:30 2 1 4 250° W
Fr, 19.10. 6:00 4 1 4 230° SW
Fr, 19.10. 5:30 4 1 4 210° SW
Ortszeit Untergrenze Bedeckung Gattung
total tief tief mittel hoch
Fr, 19.10. 8:00 <30 m 7/8 7/8 - - -
Fr, 19.10. 2:00 - 0/8 0/8 - - -
Do, 18.10. 20:00 1140 m 3/8 1/8 - - -
Do, 18.10. 14:00 480 m 8/8 8/8 - - -
Do, 18.10. 8:00 150 m 8/8 8/8 - - -
Do, 18.10. 2:00 6300 m 8/8 1/8 - - -
Mi, 17.10. 20:00 9000 m 8/8 0/8 - - -
Mi, 17.10. 14:00 6300 m 8/8 8/8 - - -
Ortszeit Bedeckungsgrad in Achtel und Wolkenuntergrenze
Fr, 19.10. 8:30 7(<30m)
Fr, 19.10. 8:20 7(<30m)
Fr, 19.10. 8:10 7(<30m)
Fr, 19.10. 8:00 7(<30m)
Fr, 19.10. 7:50 7(<30m)
Fr, 19.10. 7:40 7(<30m) 7(630m)
Fr, 19.10. 7:30 5(<30m) 6(630m) 9
Fr, 19.10. 7:00 keine Wolken
Fr, 19.10. 6:30 2(9000m)
Fr, 19.10. 6:00 2(9000m)
Fr, 19.10. 5:30 keine Wolken
Ortszeit Luftdruck NN (hPa) Tendenz (hPa in 3 Std.)
Fr, 19.10. 8:00 1025 + 0,5
Fr, 19.10. 2:00 1025 - 0,3
Do, 18.10. 20:00 1023 + 0,5
Do, 18.10. 14:00 1023 + 0,1
Do, 18.10. 8:00 1022 + 1,1
Do, 18.10. 2:00 1021 + 0,4
Mi, 17.10. 20:00 1019 + 0,9
Mi, 17.10. 14:00 1019 - 0,6
Ortszeit Luftdruck NN (hPa) Tendenz (hPa in 3 Std.)
Fr, 19.10. 8:30 1025 + 0,6
Fr, 19.10. 8:20 1025 keine Meldung
Fr, 19.10. 8:10 1025 keine Meldung
Fr, 19.10. 8:00 1025 + 0,5
Fr, 19.10. 7:50 1025 keine Meldung
Fr, 19.10. 7:40 1025 keine Meldung
Fr, 19.10. 7:30 1025 + 0,3
Fr, 19.10. 7:00 1025 + 0,4
Fr, 19.10. 6:30 1025 + 0,3
Fr, 19.10. 6:00 1025 + 0,2
Fr, 19.10. 5:30 1024 - 0,1
Ortszeit Schneehöhe (cm)
Fr, 19.10. 8:00 0
Fr, 19.10. 2:00 0
Do, 18.10. 20:00 0
Do, 18.10. 14:00 0
Do, 18.10. 8:00 0
Do, 18.10. 2:00 0
Mi, 17.10. 20:00 0
Mi, 17.10. 14:00 0
Ortszeit Schneehöhe (cm)
Fr, 19.10. 8:30 0
Fr, 19.10. 8:20 0
Fr, 19.10. 8:10 0
Fr, 19.10. 8:00 0
Fr, 19.10. 7:50 0
Fr, 19.10. 7:40 0
Fr, 19.10. 7:30 0
Fr, 19.10. 7:00 0
Fr, 19.10. 6:30 0
Fr, 19.10. 6:00 0
Fr, 19.10. 5:30 0
Link zu dieser Seite / Seite empfehlen

Das Wetter in ...